sensor_id;sensor_type;location;lat;lon;timestamp;pressure;altitude;pressure_sealevel;temperature;humidity
9189;BME280;34313;50.780;6.084;2022-12-07T00:00:48;99726.88;;;5.04;100.00
9189;BME280;34313;50.780;6.084;2022-12-07T00:03:13;99732.03;;;5.06;100.00
9189;BME280;34313;50.780;6.084;2022-12-07T00:05:39;99725.00;;;5.08;100.00
9189;BME280;34313;50.780;6.084;2022-12-07T00:08:04;99724.91;;;5.11;100.00
9189;BME280;34313;50.780;6.084;2022-12-07T00:10:29;99722.34;;;5.09;100.00
9189;BME280;34313;50.780;6.084;2022-12-07T00:12:55;99725.81;;;5.10;100.00
9189;BME280;34313;50.780;6.084;2022-12-07T00:15:20;99718.94;;;5.07;100.00
9189;BME280;34313;50.780;6.084;2022-12-07T00:17:45;99722.34;;;5.09;100.00
9189;BME280;34313;50.780;6.084;2022-12-07T00:20:11;99717.97;;;5.10;100.00
9189;BME280;34313;50.780;6.084;2022-12-07T00:22:36;99712.97;;;5.04;100.00
9189;BME280;34313;50.780;6.084;2022-12-07T00:25:02;99713.56;;;5.12;100.00
9189;BME280;34313;50.780;6.084;2022-12-07T00:27:27;99711.91;;;5.09;100.00
9189;BME280;34313;50.780;6.084;2022-12-07T00:29:52;99707.69;;;5.05;100.00
9189;BME280;34313;50.780;6.084;2022-12-07T00:32:18;99701.53;;;5.06;100.00
9189;BME280;34313;50.780;6.084;2022-12-07T00:34:43;99703.41;;;5.03;100.00
9189;BME280;34313;50.780;6.084;2022-12-07T00:37:08;99702.56;;;5.02;100.00
9189;BME280;34313;50.780;6.084;2022-12-07T00:39:34;99704.31;;;5.02;100.00
9189;BME280;34313;50.780;6.084;2022-12-07T00:41:59;99700.84;;;5.01;100.00
9189;BME280;34313;50.780;6.084;2022-12-07T00:44:24;99699.09;;;5.02;100.00
9189;BME280;34313;50.780;6.084;2022-12-07T00:46:50;99696.53;;;5.00;100.00
9189;BME280;34313;50.780;6.084;2022-12-07T00:49:15;99693.84;;;5.03;100.00
9189;BME280;34313;50.780;6.084;2022-12-07T00:51:40;99699.84;;;5.05;100.00
9189;BME280;34313;50.780;6.084;2022-12-07T00:54:06;99693.66;;;5.08;100.00
9189;BME280;34313;50.780;6.084;2022-12-07T00:56:31;99704.84;;;5.11;100.00
9189;BME280;34313;50.780;6.084;2022-12-07T00:58:59;99696.38;;;5.05;100.00
9189;BME280;34313;50.780;6.084;2022-12-07T01:01:27;99700.69;;;5.06;100.00
9189;BME280;34313;50.780;6.084;2022-12-07T01:03:53;99693.00;;;5.01;100.00
9189;BME280;34313;50.780;6.084;2022-12-07T01:06:20;99701.03;;;4.95;100.00
9189;BME280;34313;50.780;6.084;2022-12-07T01:08:46;99696.09;;;4.87;100.00
9189;BME280;34313;50.780;6.084;2022-12-07T01:11:15;99693.13;;;4.98;100.00
9189;BME280;34313;50.780;6.084;2022-12-07T01:13:41;99693.13;;;4.98;100.00
9189;BME280;34313;50.780;6.084;2022-12-07T01:16:07;99698.97;;;5.05;100.00
9189;BME280;34313;50.780;6.084;2022-12-07T01:18:35;99697.53;;;4.96;100.00
9189;BME280;34313;50.780;6.084;2022-12-07T01:21:11;99694.00;;;4.97;100.00
9189;BME280;34313;50.780;6.084;2022-12-07T01:23:37;99702.50;;;5.04;100.00
9189;BME280;34313;50.780;6.084;2022-12-07T01:26:09;99700.00;;;5.01;100.00
9189;BME280;34313;50.780;6.084;2022-12-07T01:28:36;99693.91;;;5.00;100.00
9189;BME280;34313;50.780;6.084;2022-12-07T01:31:04;99696.13;;;4.86;100.00
9189;BME280;34313;50.780;6.084;2022-12-07T01:33:32;99697.59;;;4.95;100.00
9189;BME280;34313;50.780;6.084;2022-12-07T01:36:06;99702.59;;;5.01;100.00
9189;BME280;34313;50.780;6.084;2022-12-07T01:38:32;99697.53;;;4.96;100.00
9189;BME280;34313;50.780;6.084;2022-12-07T01:40:59;99706.00;;;5.03;100.00
9189;BME280;34313;50.780;6.084;2022-12-07T01:43:26;99707.03;;;4.99;100.00
9189;BME280;34313;50.780;6.084;2022-12-07T01:45:52;99710.84;;;4.88;100.00
9189;BME280;34313;50.780;6.084;2022-12-07T01:48:30;99709.81;;;4.92;100.00
9189;BME280;34313;50.780;6.084;2022-12-07T01:51:02;99701.13;;;4.92;100.00
9189;BME280;34313;50.780;6.084;2022-12-07T01:53:30;99702.78;;;4.96;100.00
9189;BME280;34313;50.780;6.084;2022-12-07T01:55:58;99702.59;;;5.01;100.00
9189;BME280;34313;50.780;6.084;2022-12-07T01:58:25;99712.25;;;4.99;100.00
9189;BME280;34313;50.780;6.084;2022-12-07T02:00:50;99703.56;;;4.98;100.00
9189;BME280;34313;50.780;6.084;2022-12-07T02:03:34;99700.16;;;4.96;100.00
9189;BME280;34313;50.780;6.084;2022-12-07T02:06:01;99694.84;;;4.98;100.00
9189;BME280;34313;50.780;6.084;2022-12-07T02:08:26;99705.47;;;4.93;100.00
9189;BME280;34313;50.780;6.084;2022-12-07T02:10:52;99699.28;;;4.96;100.00
9189;BME280;34313;50.780;6.084;2022-12-07T02:13:20;99691.63;;;4.91;100.00
9189;BME280;34313;50.780;6.084;2022-12-07T02:19:14;99686.38;;;4.91;100.00
9189;BME280;34313;50.780;6.084;2022-12-07T02:27:34;99673.13;;;4.97;100.00
9189;BME280;34313;50.780;6.084;2022-12-07T02:30:06;99682.00;;;4.91;100.00
9189;BME280;34313;50.780;6.084;2022-12-07T02:32:55;99680.09;;;4.97;100.00
9189;BME280;34313;50.780;6.084;2022-12-07T02:35:30;99686.38;;;4.91;100.00
9189;BME280;34313;50.780;6.084;2022-12-07T02:38:18;99686.09;;;5.00;100.00
9189;BME280;34313;50.780;6.084;2022-12-07T02:40:53;99685.34;;;4.97;100.00
9189;BME280;34313;50.780;6.084;2022-12-07T02:43:28;99690.19;;;4.81;100.00
9189;BME280;34313;50.780;6.084;2022-12-07T02:45:59;99683.28;;;4.78;100.00
9189;BME280;34313;50.780;6.084;2022-12-07T02:48:27;99687.38;;;4.87;100.00
9189;BME280;34313;50.780;6.084;2022-12-07T02:50:54;99679.63;;;4.84;100.00
9189;BME280;34313;50.780;6.084;2022-12-07T02:53:40;99677.72;;;4.89;100.00
9189;BME280;34313;50.780;6.084;2022-12-07T02:59:04;99675.13;;;4.89;100.00
9189;BME280;34313;50.780;6.084;2022-12-07T03:10:27;99681.59;;;4.77;100.00
9189;BME280;34313;50.780;6.084;2022-12-07T03:16:14;99679.16;;;4.71;100.00
9189;BME280;34313;50.780;6.084;2022-12-07T03:18:51;99685.00;;;4.79;100.00
9189;BME280;34313;50.780;6.084;2022-12-07T03:21:21;99683.25;;;4.80;100.00
9189;BME280;34313;50.780;6.084;2022-12-07T03:23:51;99688.38;;;4.83;100.00
9189;BME280;34313;50.780;6.084;2022-12-07T03:26:19;99689.56;;;4.72;100.00
9189;BME280;34313;50.780;6.084;2022-12-07T03:28:51;99680.84;;;4.73;100.00
9189;BME280;34313;50.780;6.084;2022-12-07T03:31:22;99673.66;;;4.80;100.00
9189;BME280;34313;50.780;6.084;2022-12-07T03:36:29;99676.50;;;4.72;100.00
9189;BME280;34313;50.780;6.084;2022-12-07T03:41:27;99674.72;;;4.74;100.00
9189;BME280;34313;50.780;6.084;2022-12-07T03:43:55;99679.78;;;4.79;100.00
9189;BME280;34313;50.780;6.084;2022-12-07T03:46:39;99675.28;;;4.84;100.00
9189;BME280;34313;50.780;6.084;2022-12-07T03:49:17;99675.22;;;4.86;100.00
9189;BME280;34313;50.780;6.084;2022-12-07T03:52:02;99676.88;;;4.88;100.00
9189;BME280;34313;50.780;6.084;2022-12-07T03:57:09;99676.75;;;4.93;100.00
9189;BME280;34313;50.780;6.084;2022-12-07T03:59:37;99677.84;;;4.86;100.00
9189;BME280;34313;50.780;6.084;2022-12-07T04:02:05;99683.66;;;4.94;100.00
9189;BME280;34313;50.780;6.084;2022-12-07T04:04:31;99683.03;;;4.87;100.00
9189;BME280;34313;50.780;6.084;2022-12-07T04:06:56;99673.50;;;4.85;100.00
9189;BME280;34313;50.780;6.084;2022-12-07T04:09:22;99672.72;;;4.83;100.00
9189;BME280;34313;50.780;6.084;2022-12-07T04:11:48;99674.47;;;4.82;100.00
9189;BME280;34313;50.780;6.084;2022-12-07T04:14:13;99675.41;;;4.80;100.00
9189;BME280;34313;50.780;6.084;2022-12-07T04:16:45;99671.13;;;4.79;100.00
9189;BME280;34313;50.780;6.084;2022-12-07T04:19:11;99665.69;;;4.85;100.00
9189;BME280;34313;50.780;6.084;2022-12-07T04:21:37;99673.56;;;4.83;100.00
9189;BME280;34313;50.780;6.084;2022-12-07T04:24:03;99665.97;;;4.76;100.00
9189;BME280;34313;50.780;6.084;2022-12-07T04:26:29;99673.19;;;4.67;100.00
9189;BME280;34313;50.780;6.084;2022-12-07T04:28:54;99667.13;;;4.67;100.00
9189;BME280;34313;50.780;6.084;2022-12-07T04:31:20;99681.78;;;4.71;100.00
9189;BME280;34313;50.780;6.084;2022-12-07T04:33:45;99671.19;;;4.76;100.00
9189;BME280;34313;50.780;6.084;2022-12-07T04:36:10;99669.34;;;4.79;100.00
9189;BME280;34313;50.780;6.084;2022-12-07T04:38:36;99663.41;;;4.74;100.00
9189;BME280;34313;50.780;6.084;2022-12-07T04:41:08;99668.44;;;4.80;100.00
9189;BME280;34313;50.780;6.084;2022-12-07T04:43:34;99663.19;;;4.80;100.00
9189;BME280;34313;50.780;6.084;2022-12-07T04:46:00;99671.13;;;4.79;100.00
9189;BME280;34313;50.780;6.084;2022-12-07T04:48:25;99677.56;;;4.67;100.00
9189;BME280;34313;50.780;6.084;2022-12-07T04:50:51;99663.59;;;4.68;100.00
9189;BME280;34313;50.780;6.084;2022-12-07T04:53:16;99660.03;;;4.70;100.00
9189;BME280;34313;50.780;6.084;2022-12-07T04:55:41;99666.72;;;4.79;100.00
9189;BME280;34313;50.780;6.084;2022-12-07T04:58:07;99662.63;;;4.72;100.00
9189;BME280;34313;50.780;6.084;2022-12-07T05:00:32;99666.28;;;4.66;100.00
9189;BME280;34313;50.780;6.084;2022-12-07T05:02:58;99660.44;;;4.58;100.00
9189;BME280;34313;50.780;6.084;2022-12-07T05:05:23;99665.09;;;4.75;100.00
9189;BME280;34313;50.780;6.084;2022-12-07T05:07:49;99662.44;;;4.77;100.00
9189;BME280;34313;50.780;6.084;2022-12-07T05:10:14;99662.31;;;4.81;100.00
9189;BME280;34313;50.780;6.084;2022-12-07T05:12:40;99656.19;;;4.82;100.00
9189;BME280;34313;50.780;6.084;2022-12-07T05:15:05;99658.31;;;4.69;100.00
9189;BME280;34313;50.780;6.084;2022-12-07T05:17:31;99654.03;;;4.68;100.00
9189;BME280;34313;50.780;6.084;2022-12-07T05:19:56;99657.41;;;4.72;100.00
9189;BME280;34313;50.780;6.084;2022-12-07T05:22:21;99658.38;;;4.68;100.00
9189;BME280;34313;50.780;6.084;2022-12-07T05:24:47;99670.78;;;4.61;100.00
9189;BME280;34313;50.780;6.084;2022-12-07T05:27:12;99662.78;;;4.66;100.00
9189;BME280;34313;50.780;6.084;2022-12-07T05:29:37;99662.78;;;4.66;100.00
9189;BME280;34313;50.780;6.084;2022-12-07T05:32:03;99662.25;;;4.56;100.00
9189;BME280;34313;50.780;6.084;2022-12-07T05:34:28;99667.69;;;4.48;100.00
9189;BME280;34313;50.780;6.084;2022-12-07T05:36:53;99677.78;;;4.31;100.00
9189;BME280;34313;50.780;6.084;2022-12-07T05:39:19;99666.63;;;4.26;100.00
9189;BME280;34313;50.780;6.084;2022-12-07T05:41:44;99663.44;;;4.16;100.00
9189;BME280;34313;50.780;6.084;2022-12-07T05:44:28;99666.22;;;4.10;100.00
9189;BME280;34313;50.780;6.084;2022-12-07T05:46:54;99658.53;;;4.05;100.00
9189;BME280;34313;50.780;6.084;2022-12-07T05:49:19;99675.97;;;4.03;100.00
9189;BME280;34313;50.780;6.084;2022-12-07T05:51:44;99656.34;;;3.91;100.00
9189;BME280;34313;50.780;6.084;2022-12-07T05:54:10;99661.47;;;3.94;100.00
9189;BME280;34313;50.780;6.084;2022-12-07T05:56:35;99658.72;;;3.99;100.00
9189;BME280;34313;50.780;6.084;2022-12-07T05:59:01;99652.31;;;3.79;100.00
9189;BME280;34313;50.780;6.084;2022-12-07T06:01:44;99657.59;;;3.76;100.00
9189;BME280;34313;50.780;6.084;2022-12-07T06:04:10;99660.25;;;3.75;100.00
9189;BME280;34313;50.780;6.084;2022-12-07T06:06:36;99653.97;;;3.82;100.00
9189;BME280;34313;50.780;6.084;2022-12-07T06:09:02;99656.00;;;3.72;100.00
9189;BME280;34313;50.780;6.084;2022-12-07T06:11:28;99656.00;;;3.72;100.00
9189;BME280;34313;50.780;6.084;2022-12-07T06:14:12;99662.63;;;3.84;100.00
9189;BME280;34313;50.780;6.084;2022-12-07T06:16:37;99673.16;;;3.79;100.00
9189;BME280;34313;50.780;6.084;2022-12-07T06:19:02;99670.53;;;3.81;100.00
9189;BME280;34313;50.780;6.084;2022-12-07T06:21:28;99675.53;;;3.87;100.00
9189;BME280;34313;50.780;6.084;2022-12-07T06:23:53;99675.38;;;3.93;100.00
9189;BME280;34313;50.780;6.084;2022-12-07T06:26:19;99669.28;;;3.94;100.00
9189;BME280;34313;50.780;6.084;2022-12-07T06:28:45;99670.53;;;4.11;100.00
9189;BME280;34313;50.780;6.084;2022-12-07T06:31:10;99663.41;;;4.18;100.00
9189;BME280;34313;50.780;6.084;2022-12-07T06:33:35;99672.13;;;4.16;100.00
9189;BME280;34313;50.780;6.084;2022-12-07T06:36:01;99672.97;;;4.17;100.00
9189;BME280;34313;50.780;6.084;2022-12-07T06:38:26;99671.13;;;4.21;100.00
9189;BME280;34313;50.780;6.084;2022-12-07T06:40:51;99669.00;;;4.33;100.00
9189;BME280;34313;50.780;6.084;2022-12-07T06:43:17;99672.75;;;4.25;100.00
9189;BME280;34313;50.780;6.084;2022-12-07T06:45:42;99673.59;;;4.25;100.00
9189;BME280;34313;50.780;6.084;2022-12-07T06:48:08;99677.09;;;4.24;100.00
9189;BME280;34313;50.780;6.084;2022-12-07T06:50:33;99674.41;;;4.27;100.00
9189;BME280;34313;50.780;6.084;2022-12-07T06:52:58;99676.13;;;4.28;100.00
9189;BME280;34313;50.780;6.084;2022-12-07T06:55:24;99677.09;;;4.24;100.00
9189;BME280;34313;50.780;6.084;2022-12-07T06:57:49;99681.91;;;4.38;100.00
9189;BME280;34313;50.780;6.084;2022-12-07T07:00:15;99674.78;;;4.43;100.00
9189;BME280;34313;50.780;6.084;2022-12-07T07:02:41;99672.13;;;4.45;100.00
9189;BME280;34313;50.780;6.084;2022-12-07T07:05:06;99672.47;;;4.34;100.00
9189;BME280;34313;50.780;6.084;2022-12-07T07:07:32;99676.25;;;4.24;100.00
9189;BME280;34313;50.780;6.084;2022-12-07T07:09:57;99678.09;;;4.20;100.00
9189;BME280;34313;50.780;6.084;2022-12-07T07:12:23;99682.19;;;4.29;100.00
9189;BME280;34313;50.780;6.084;2022-12-07T07:14:48;99682.19;;;4.29;100.00
9189;BME280;34313;50.780;6.084;2022-12-07T07:17:13;99683.91;;;4.30;100.00
9189;BME280;34313;50.780;6.084;2022-12-07T07:19:39;99684.50;;;4.38;100.00
9189;BME280;34313;50.780;6.084;2022-12-07T07:22:05;99688.81;;;4.41;100.00
9189;BME280;34313;50.780;6.084;2022-12-07T07:24:30;99691.28;;;4.45;100.00
9189;BME280;34313;50.780;6.084;2022-12-07T07:26:55;99687.75;;;4.46;100.00
9189;BME280;34313;50.780;6.084;2022-12-07T07:29:21;99689.31;;;4.52;100.00
9189;BME280;34313;50.780;6.084;2022-12-07T07:31:46;99681.22;;;4.61;100.00
9189;BME280;34313;50.780;6.084;2022-12-07T07:34:11;99675.09;;;4.62;100.00
9189;BME280;34313;50.780;6.084;2022-12-07T07:36:37;99675.28;;;4.56;100.00
9189;BME280;34313;50.780;6.084;2022-12-07T07:39:03;99675.00;;;4.65;100.00
9189;BME280;34313;50.780;6.084;2022-12-07T07:41:28;99680.88;;;4.72;100.00
9189;BME280;34313;50.780;6.084;2022-12-07T07:43:53;99680.84;;;4.73;100.00
9189;BME280;34313;50.780;6.084;2022-12-07T07:46:21;99680.84;;;4.73;100.00
9189;BME280;34313;50.780;6.084;2022-12-07T07:48:46;99684.97;;;4.81;100.00
9189;BME280;34313;50.780;6.084;2022-12-07T07:51:12;99683.16;;;4.83;100.00
9189;BME280;34313;50.780;6.084;2022-12-07T07:53:37;99684.31;;;4.74;100.00
9189;BME280;34313;50.780;6.084;2022-12-07T07:56:03;99682.50;;;4.76;100.00
9189;BME280;34313;50.780;6.084;2022-12-07T07:58:28;99685.50;;;4.90;100.00
9189;BME280;34313;50.780;6.084;2022-12-07T08:00:54;99690.06;;;4.84;100.00
9189;BME280;34313;50.780;6.084;2022-12-07T08:03:19;99699.66;;;4.83;100.00
9189;BME280;34313;50.780;6.084;2022-12-07T08:05:44;99698.03;;;4.81;100.00
9189;BME280;34313;50.780;6.084;2022-12-07T08:08:10;99696.50;;;4.73;100.00
9189;BME280;34313;50.780;6.084;2022-12-07T08:10:35;99699.88;;;4.77;100.00
9189;BME280;34313;50.780;6.084;2022-12-07T08:13:02;99693.69;;;4.80;100.00
9189;BME280;34313;50.780;6.084;2022-12-07T08:15:39;99685.56;;;4.89;100.00
9189;BME280;34313;50.780;6.084;2022-12-07T08:18:05;99696.66;;;4.96;100.00
9189;BME280;34313;50.780;6.084;2022-12-07T08:20:31;99699.69;;;5.10;100.00
9189;BME280;34313;50.780;6.084;2022-12-07T08:22:58;99686.16;;;5.24;99.80
9189;BME280;34313;50.780;6.084;2022-12-07T08:25:23;99680.78;;;5.28;99.37
9189;BME280;34313;50.780;6.084;2022-12-07T08:27:50;99689.47;;;5.29;98.78
9189;BME280;34313;50.780;6.084;2022-12-07T08:30:16;99686.59;;;5.38;98.19
9189;BME280;34313;50.780;6.084;2022-12-07T08:32:44;99686.22;;;5.49;96.81
9189;BME280;34313;50.780;6.084;2022-12-07T08:35:09;99688.53;;;5.57;95.82
9189;BME280;34313;50.780;6.084;2022-12-07T08:37:35;99689.94;;;5.67;95.54
9189;BME280;34313;50.780;6.084;2022-12-07T08:40:00;99685.41;;;5.72;94.93
9189;BME280;34313;50.780;6.084;2022-12-07T08:42:26;99688.59;;;5.80;94.23
9189;BME280;34313;50.780;6.084;2022-12-07T08:44:56;99687.69;;;5.81;93.38
9189;BME280;34313;50.780;6.084;2022-12-07T08:47:23;99674.69;;;5.55;93.52
9189;BME280;34313;50.780;6.084;2022-12-07T08:49:50;99685.47;;;5.45;93.84
9189;BME280;34313;50.780;6.084;2022-12-07T08:52:17;99682.75;;;5.22;94.97
9189;BME280;34313;50.780;6.084;2022-12-07T08:54:43;99687.28;;;5.17;95.06
9189;BME280;34313;50.780;6.084;2022-12-07T08:57:09;99691.97;;;5.07;95.86
9189;BME280;34313;50.780;6.084;2022-12-07T08:59:35;99689.53;;;5.27;96.64
9189;BME280;34313;50.780;6.084;2022-12-07T09:02:02;99693.50;;;5.64;94.70
9189;BME280;34313;50.780;6.084;2022-12-07T09:04:27;99697.47;;;6.01;93.58
9189;BME280;34313;50.780;6.084;2022-12-07T09:06:54;99696.31;;;6.32;91.56
9189;BME280;34313;50.780;6.084;2022-12-07T09:09:20;99701.81;;;6.26;89.40
9189;BME280;34313;50.780;6.084;2022-12-07T09:11:45;99692.91;;;6.30;89.30
9189;BME280;34313;50.780;6.084;2022-12-07T09:14:11;99708.34;;;6.14;89.37
9189;BME280;34313;50.780;6.084;2022-12-07T09:16:38;99706.31;;;5.97;89.89
9189;BME280;34313;50.780;6.084;2022-12-07T09:19:03;99699.69;;;5.87;90.91
9189;BME280;34313;50.780;6.084;2022-12-07T09:21:29;99709.19;;;5.64;91.29
9189;BME280;34313;50.780;6.084;2022-12-07T09:23:55;99706.84;;;5.57;91.72
9189;BME280;34313;50.780;6.084;2022-12-07T09:26:20;99702.25;;;5.63;93.88
9189;BME280;34313;50.780;6.084;2022-12-07T09:28:46;99704.84;;;5.88;92.38
9189;BME280;34313;50.780;6.084;2022-12-07T09:31:11;99705.91;;;6.33;90.65
9189;BME280;34313;50.780;6.084;2022-12-07T09:33:37;99712.59;;;6.86;88.34
9189;BME280;34313;50.780;6.084;2022-12-07T09:36:03;99702.91;;;7.10;87.68
9189;BME280;34313;50.780;6.084;2022-12-07T09:38:29;99711.94;;;7.24;86.42
9189;BME280;34313;50.780;6.084;2022-12-07T09:40:56;99706.34;;;7.11;85.81
9189;BME280;34313;50.780;6.084;2022-12-07T09:43:23;99702.34;;;7.02;86.73
9189;BME280;34313;50.780;6.084;2022-12-07T09:45:52;99703.69;;;7.12;86.84
9189;BME280;34313;50.780;6.084;2022-12-07T09:48:33;99707.81;;;7.18;86.08
9189;BME280;34313;50.780;6.084;2022-12-07T09:51:02;99692.94;;;7.18;85.52
9189;BME280;34313;50.780;6.084;2022-12-07T09:53:37;99694.38;;;7.26;85.75
9189;BME280;34313;50.780;6.084;2022-12-07T09:56:03;99685.09;;;7.39;85.23
9189;BME280;34313;50.780;6.084;2022-12-07T09:58:30;99690.66;;;7.52;84.80
9189;BME280;34313;50.780;6.084;2022-12-07T10:00:59;99690.84;;;7.27;84.58
9189;BME280;34313;50.780;6.084;2022-12-07T10:03:27;99688.28;;;7.25;85.20
9189;BME280;34313;50.780;6.084;2022-12-07T10:05:53;99687.84;;;7.15;85.02
9189;BME280;34313;50.780;6.084;2022-12-07T10:08:19;99679.31;;;7.10;85.67
9189;BME280;34313;50.780;6.084;2022-12-07T10:10:46;99689.72;;;7.12;85.92
9189;BME280;34313;50.780;6.084;2022-12-07T10:13:15;99682.44;;;6.98;86.32
9189;BME280;34313;50.780;6.084;2022-12-07T10:15:57;99667.94;;;6.89;87.17
9189;BME280;34313;50.780;6.084;2022-12-07T10:18:39;99665.66;;;7.02;85.60
9189;BME280;34313;50.780;6.084;2022-12-07T10:21:21;99672.63;;;7.24;85.53
9189;BME280;34313;50.780;6.084;2022-12-07T10:24:05;99676.56;;;7.54;84.73
9189;BME280;34313;50.780;6.084;2022-12-07T10:29:41;99672.81;;;7.81;82.55
9189;BME280;34313;50.780;6.084;2022-12-07T10:34:50;99666.75;;;8.18;81.13
9189;BME280;34313;50.780;6.084;2022-12-07T10:37:18;99666.09;;;8.13;80.73
9189;BME280;34313;50.780;6.084;2022-12-07T10:39:51;99672.53;;;7.87;81.39
9189;BME280;34313;50.780;6.084;2022-12-07T10:42:24;99671.56;;;7.69;81.99
9189;BME280;34313;50.780;6.084;2022-12-07T10:45:07;99673.84;;;7.57;83.49
9189;BME280;34313;50.780;6.084;2022-12-07T10:47:48;99658.03;;;7.38;84.18
9189;BME280;34313;50.780;6.084;2022-12-07T10:59:22;99642.34;;;6.52;88.63
9189;BME280;34313;50.780;6.084;2022-12-07T11:04:43;99629.88;;;6.13;89.54
9189;BME280;34313;50.780;6.084;2022-12-07T11:07:38;99630.34;;;6.46;89.78
9189;BME280;34313;50.780;6.084;2022-12-07T11:10:11;99628.41;;;6.73;88.95
9189;BME280;34313;50.780;6.084;2022-12-07T11:15:33;99610.84;;;6.96;87.67
9189;BME280;34313;50.780;6.084;2022-12-07T11:18:12;99618.75;;;7.16;86.82
9189;BME280;34313;50.780;6.084;2022-12-07T11:20:50;99611.78;;;7.56;85.43
9189;BME280;34313;50.780;6.084;2022-12-07T11:23:26;99610.97;;;7.75;84.53
9189;BME280;34313;50.780;6.084;2022-12-07T11:26:23;99599.31;;;7.62;84.17
9189;BME280;34313;50.780;6.084;2022-12-07T11:29:21;99597.06;;;7.73;81.87
9189;BME280;34313;50.780;6.084;2022-12-07T11:36:51;99591.47;;;7.41;82.23
9189;BME280;34313;50.780;6.084;2022-12-07T11:41:45;99585.59;;;6.95;85.29
9189;BME280;34313;50.780;6.084;2022-12-07T11:44:32;99586.31;;;6.56;86.72
9189;BME280;34313;50.780;6.084;2022-12-07T11:47:07;99578.59;;;6.53;87.22
9189;BME280;34313;50.780;6.084;2022-12-07T11:49:52;99583.59;;;6.37;87.66
9189;BME280;34313;50.780;6.084;2022-12-07T11:52:26;99583.59;;;6.37;87.84
9189;BME280;34313;50.780;6.084;2022-12-07T11:54:57;99571.03;;;6.45;87.00
9189;BME280;34313;50.780;6.084;2022-12-07T11:57:38;99575.34;;;6.68;86.78
9189;BME280;34313;50.780;6.084;2022-12-07T12:00:15;99577.59;;;6.77;86.49
9189;BME280;34313;50.780;6.084;2022-12-07T12:03:01;99581.25;;;6.73;86.32
9189;BME280;34313;50.780;6.084;2022-12-07T12:05:29;99576.75;;;6.77;85.84
9189;BME280;34313;50.780;6.084;2022-12-07T12:08:13;99581.59;;;6.86;85.12
9189;BME280;34313;50.780;6.084;2022-12-07T12:13:40;99574.53;;;7.09;84.19
9189;BME280;34313;50.780;6.084;2022-12-07T12:16:24;99572.16;;;7.23;83.53
9189;BME280;34313;50.780;6.084;2022-12-07T12:19:15;99565.72;;;7.30;83.10
9189;BME280;34313;50.780;6.084;2022-12-07T12:21:46;99564.09;;;7.28;83.22
9189;BME280;34313;50.780;6.084;2022-12-07T12:24:19;99560.41;;;7.32;82.72
9189;BME280;34313;50.780;6.084;2022-12-07T12:26:55;99562.38;;;7.27;83.14
9189;BME280;34313;50.780;6.084;2022-12-07T12:29:31;99554.16;;;7.15;82.98
9189;BME280;34313;50.780;6.084;2022-12-07T12:32:19;99559.28;;;6.98;83.10
9189;BME280;34313;50.780;6.084;2022-12-07T12:42:45;99547.88;;;6.56;86.27
9189;BME280;34313;50.780;6.084;2022-12-07T12:47:55;99549.88;;;6.72;86.37
9189;BME280;34313;50.780;6.084;2022-12-07T12:50:27;99544.25;;;7.02;85.58
9189;BME280;34313;50.780;6.084;2022-12-07T12:52:56;99541.28;;;7.30;83.58
9189;BME280;34313;50.780;6.084;2022-12-07T12:55:43;99532.88;;;7.42;82.42
9189;BME280;34313;50.780;6.084;2022-12-07T13:00:44;99523.81;;;7.68;80.99
9189;BME280;34313;50.780;6.084;2022-12-07T13:03:27;99533.63;;;7.65;80.34
9189;BME280;34313;50.780;6.084;2022-12-07T13:08:52;99527.09;;;7.73;80.39
9189;BME280;34313;50.780;6.084;2022-12-07T13:11:32;99518.72;;;7.65;80.88
9189;BME280;34313;50.780;6.084;2022-12-07T13:14:39;99524.44;;;7.54;80.96
9189;BME280;34313;50.780;6.084;2022-12-07T13:17:12;99527.97;;;7.53;81.68
9189;BME280;34313;50.780;6.084;2022-12-07T13:19:54;99523.72;;;7.32;82.32
9189;BME280;34313;50.780;6.084;2022-12-07T13:25:07;99522.22;;;7.26;83.15
9189;BME280;34313;50.780;6.084;2022-12-07T13:27:37;99524.06;;;7.24;83.42
9189;BME280;34313;50.780;6.084;2022-12-07T13:30:14;99518.94;;;7.21;83.66
9189;BME280;34313;50.780;6.084;2022-12-07T13:32:40;99515.75;;;7.14;84.11
9189;BME280;34313;50.780;6.084;2022-12-07T13:35:32;99511.63;;;7.09;84.70
9189;BME280;34313;50.780;6.084;2022-12-07T13:37:58;99511.56;;;7.10;84.45
9189;BME280;34313;50.780;6.084;2022-12-07T13:40:24;99504.34;;;7.15;83.89
9189;BME280;34313;50.780;6.084;2022-12-07T13:43:03;99505.03;;;7.00;83.07
9189;BME280;34313;50.780;6.084;2022-12-07T13:45:31;99500.31;;;7.08;83.06
9189;BME280;34313;50.780;6.084;2022-12-07T13:48:31;99502.00;;;7.09;83.11
9189;BME280;34313;50.780;6.084;2022-12-07T13:50:59;99499.50;;;7.06;83.45
9189;BME280;34313;50.780;6.084;2022-12-07T13:53:26;99489.16;;;7.03;84.14
9189;BME280;34313;50.780;6.084;2022-12-07T13:55:56;99486.03;;;6.95;84.31
9189;BME280;34313;50.780;6.084;2022-12-07T13:58:23;99483.72;;;6.87;84.99
9189;BME280;34313;50.780;6.084;2022-12-07T14:00:49;99470.44;;;6.71;85.55
9189;BME280;34313;50.780;6.084;2022-12-07T14:05:41;99479.22;;;6.70;86.02
9189;BME280;34313;50.780;6.084;2022-12-07T14:13:34;99479.63;;;6.61;87.18
9189;BME280;34313;50.780;6.084;2022-12-07T14:16:16;99470.00;;;6.61;87.08
9189;BME280;34313;50.780;6.084;2022-12-07T14:18:43;99476.41;;;6.54;87.35
9189;BME280;34313;50.780;6.084;2022-12-07T14:23:35;99461.22;;;6.42;87.53
9189;BME280;34313;50.780;6.084;2022-12-07T14:26:19;99463.50;;;6.50;88.02
9189;BME280;34313;50.780;6.084;2022-12-07T14:28:46;99459.50;;;6.41;88.80
9189;BME280;34313;50.780;6.084;2022-12-07T14:31:17;99460.84;;;6.29;89.27
9189;BME280;34313;50.780;6.084;2022-12-07T14:33:45;99451.81;;;6.36;89.20
9189;BME280;34313;50.780;6.084;2022-12-07T14:36:12;99452.53;;;6.19;90.15
9189;BME280;34313;50.780;6.084;2022-12-07T14:38:38;99459.56;;;6.19;90.89
9189;BME280;34313;50.780;6.084;2022-12-07T14:41:05;99460.47;;;6.18;91.21
9189;BME280;34313;50.780;6.084;2022-12-07T14:43:49;99451.69;;;6.19;91.39
9189;BME280;34313;50.780;6.084;2022-12-07T14:46:15;99448.41;;;6.14;91.25
9189;BME280;34313;50.780;6.084;2022-12-07T14:48:40;99449.94;;;6.19;91.09
9189;BME280;34313;50.780;6.084;2022-12-07T14:51:08;99446.09;;;6.06;91.91
9189;BME280;34313;50.780;6.084;2022-12-07T14:53:40;99442.63;;;6.05;92.25
9189;BME280;34313;50.780;6.084;2022-12-07T14:56:06;99443.53;;;6.04;92.32
9189;BME280;34313;50.780;6.084;2022-12-07T14:58:31;99424.06;;;5.90;92.15